sensor_id;sensor_type;location;lat;lon;timestamp;P1;durP1;ratioP1;P2;durP2;ratioP2
79027;SDS011;68427;48.476;19.102;2023-07-29T00:00:48;6.80;;;1.75;;
79027;SDS011;68427;48.476;19.102;2023-07-29T00:03:13;7.80;;;2.60;;
79027;SDS011;68427;48.476;19.102;2023-07-29T00:05:40;6.30;;;1.67;;
79027;SDS011;68427;48.476;19.102;2023-07-29T00:08:07;4.13;;;1.85;;
79027;SDS011;68427;48.476;19.102;2023-07-29T00:10:35;4.38;;;3.58;;
79027;SDS011;68427;48.476;19.102;2023-07-29T00:13:02;5.65;;;1.67;;
79027;SDS011;68427;48.476;19.102;2023-07-29T00:15:28;4.25;;;1.63;;
79027;SDS011;68427;48.476;19.102;2023-07-29T00:17:53;6.72;;;2.33;;
79027;SDS011;68427;48.476;19.102;2023-07-29T00:20:19;4.60;;;1.83;;
79027;SDS011;68427;48.476;19.102;2023-07-29T00:22:45;9.23;;;3.97;;
79027;SDS011;68427;48.476;19.102;2023-07-29T00:25:12;6.75;;;2.92;;
79027;SDS011;68427;48.476;19.102;2023-07-29T00:27:37;9.40;;;3.75;;
79027;SDS011;68427;48.476;19.102;2023-07-29T00:30:03;7.25;;;3.20;;
79027;SDS011;68427;48.476;19.102;2023-07-29T00:32:30;6.20;;;3.05;;
79027;SDS011;68427;48.476;19.102;2023-07-29T00:34:56;6.30;;;3.17;;
79027;SDS011;68427;48.476;19.102;2023-07-29T00:37:22;6.53;;;2.95;;
79027;SDS011;68427;48.476;19.102;2023-07-29T00:39:47;5.43;;;2.30;;
79027;SDS011;68427;48.476;19.102;2023-07-29T00:42:14;7.97;;;2.92;;
79027;SDS011;68427;48.476;19.102;2023-07-29T00:44:40;6.00;;;4.00;;
79027;SDS011;68427;48.476;19.102;2023-07-29T00:47:06;6.00;;;2.80;;
79027;SDS011;68427;48.476;19.102;2023-07-29T00:49:33;8.02;;;2.75;;
79027;SDS011;68427;48.476;19.102;2023-07-29T00:51:58;5.95;;;2.50;;
79027;SDS011;68427;48.476;19.102;2023-07-29T00:54:24;5.85;;;2.35;;
79027;SDS011;68427;48.476;19.102;2023-07-29T00:56:50;6.40;;;2.58;;
79027;SDS011;68427;48.476;19.102;2023-07-29T00:59:17;5.60;;;2.47;;
79027;SDS011;68427;48.476;19.102;2023-07-29T01:01:43;5.97;;;3.50;;
79027;SDS011;68427;48.476;19.102;2023-07-29T01:04:09;7.13;;;3.38;;
79027;SDS011;68427;48.476;19.102;2023-07-29T01:06:37;8.20;;;2.80;;
79027;SDS011;68427;48.476;19.102;2023-07-29T01:09:13;5.60;;;2.38;;
79027;SDS011;68427;48.476;19.102;2023-07-29T01:11:48;5.78;;;2.40;;
79027;SDS011;68427;48.476;19.102;2023-07-29T01:14:26;9.25;;;4.75;;
79027;SDS011;68427;48.476;19.102;2023-07-29T01:17:00;6.72;;;2.55;;
79027;SDS011;68427;48.476;19.102;2023-07-29T01:19:37;7.07;;;2.65;;
79027;SDS011;68427;48.476;19.102;2023-07-29T01:22:10;6.70;;;2.50;;
79027;SDS011;68427;48.476;19.102;2023-07-29T01:24:37;7.55;;;3.10;;
79027;SDS011;68427;48.476;19.102;2023-07-29T01:27:03;5.72;;;2.67;;
79027;SDS011;68427;48.476;19.102;2023-07-29T01:29:30;5.18;;;2.72;;
79027;SDS011;68427;48.476;19.102;2023-07-29T01:31:56;5.18;;;2.83;;
79027;SDS011;68427;48.476;19.102;2023-07-29T01:34:29;5.18;;;3.10;;
79027;SDS011;68427;48.476;19.102;2023-07-29T01:37:00;8.95;;;3.33;;
79027;SDS011;68427;48.476;19.102;2023-07-29T01:39:34;9.65;;;3.20;;
79027;SDS011;68427;48.476;19.102;2023-07-29T01:42:03;9.55;;;4.45;;
79027;SDS011;68427;48.476;19.102;2023-07-29T01:44:28;11.70;;;3.65;;
79027;SDS011;68427;48.476;19.102;2023-07-29T01:46:55;7.82;;;3.70;;
79027;SDS011;68427;48.476;19.102;2023-07-29T01:49:20;9.00;;;4.15;;
79027;SDS011;68427;48.476;19.102;2023-07-29T01:51:46;10.57;;;4.28;;
79027;SDS011;68427;48.476;19.102;2023-07-29T01:54:12;7.85;;;3.45;;
79027;SDS011;68427;48.476;19.102;2023-07-29T01:56:39;8.50;;;3.78;;
79027;SDS011;68427;48.476;19.102;2023-07-29T01:59:04;12.35;;;4.15;;
79027;SDS011;68427;48.476;19.102;2023-07-29T02:01:30;9.73;;;4.78;;
79027;SDS011;68427;48.476;19.102;2023-07-29T02:03:56;9.52;;;4.10;;
79027;SDS011;68427;48.476;19.102;2023-07-29T02:06:22;11.43;;;4.43;;
79027;SDS011;68427;48.476;19.102;2023-07-29T02:08:48;10.75;;;4.90;;
79027;SDS011;68427;48.476;19.102;2023-07-29T02:11:13;12.75;;;3.75;;
79027;SDS011;68427;48.476;19.102;2023-07-29T02:13:40;10.82;;;3.92;;
79027;SDS011;68427;48.476;19.102;2023-07-29T02:16:07;15.30;;;4.28;;
79027;SDS011;68427;48.476;19.102;2023-07-29T02:18:32;8.63;;;3.83;;
79027;SDS011;68427;48.476;19.102;2023-07-29T02:20:58;8.20;;;4.38;;
79027;SDS011;68427;48.476;19.102;2023-07-29T02:23:24;14.18;;;3.80;;
79027;SDS011;68427;48.476;19.102;2023-07-29T02:25:50;18.55;;;3.80;;
79027;SDS011;68427;48.476;19.102;2023-07-29T02:28:15;9.93;;;4.05;;
79027;SDS011;68427;48.476;19.102;2023-07-29T02:30:42;7.68;;;3.30;;
79027;SDS011;68427;48.476;19.102;2023-07-29T02:33:11;11.68;;;4.65;;
79027;SDS011;68427;48.476;19.102;2023-07-29T02:35:37;7.43;;;4.22;;
79027;SDS011;68427;48.476;19.102;2023-07-29T02:38:02;9.68;;;4.90;;
79027;SDS011;68427;48.476;19.102;2023-07-29T02:40:28;8.57;;;3.95;;
79027;SDS011;68427;48.476;19.102;2023-07-29T02:42:54;8.60;;;4.38;;
79027;SDS011;68427;48.476;19.102;2023-07-29T02:45:20;10.02;;;4.47;;
79027;SDS011;68427;48.476;19.102;2023-07-29T02:47:47;8.95;;;3.58;;
79027;SDS011;68427;48.476;19.102;2023-07-29T02:50:12;8.27;;;3.88;;
79027;SDS011;68427;48.476;19.102;2023-07-29T02:52:38;7.07;;;3.60;;
79027;SDS011;68427;48.476;19.102;2023-07-29T02:55:05;8.27;;;3.67;;
79027;SDS011;68427;48.476;19.102;2023-07-29T02:57:31;9.57;;;3.85;;
79027;SDS011;68427;48.476;19.102;2023-07-29T02:59:57;8.23;;;3.90;;
79027;SDS011;68427;48.476;19.102;2023-07-29T03:02:22;8.88;;;3.78;;
79027;SDS011;68427;48.476;19.102;2023-07-29T03:04:49;8.18;;;4.30;;
79027;SDS011;68427;48.476;19.102;2023-07-29T03:07:15;9.00;;;3.88;;
79027;SDS011;68427;48.476;19.102;2023-07-29T03:09:41;6.70;;;3.80;;
79027;SDS011;68427;48.476;19.102;2023-07-29T03:12:07;6.05;;;3.40;;
79027;SDS011;68427;48.476;19.102;2023-07-29T03:14:33;7.13;;;3.72;;
79027;SDS011;68427;48.476;19.102;2023-07-29T03:17:01;5.90;;;3.58;;
79027;SDS011;68427;48.476;19.102;2023-07-29T03:19:28;7.10;;;3.40;;
79027;SDS011;68427;48.476;19.102;2023-07-29T03:21:55;7.57;;;3.42;;
79027;SDS011;68427;48.476;19.102;2023-07-29T03:24:20;8.63;;;5.60;;
79027;SDS011;68427;48.476;19.102;2023-07-29T03:26:46;7.35;;;3.38;;
79027;SDS011;68427;48.476;19.102;2023-07-29T03:29:12;6.90;;;3.40;;
79027;SDS011;68427;48.476;19.102;2023-07-29T03:31:37;8.82;;;5.05;;
79027;SDS011;68427;48.476;19.102;2023-07-29T03:34:03;7.25;;;3.55;;
79027;SDS011;68427;48.476;19.102;2023-07-29T03:36:29;8.43;;;3.95;;
79027;SDS011;68427;48.476;19.102;2023-07-29T03:38:56;7.10;;;4.35;;
79027;SDS011;68427;48.476;19.102;2023-07-29T03:41:23;7.78;;;4.53;;
79027;SDS011;68427;48.476;19.102;2023-07-29T03:43:49;7.18;;;4.68;;
79027;SDS011;68427;48.476;19.102;2023-07-29T03:46:14;7.03;;;3.28;;
79027;SDS011;68427;48.476;19.102;2023-07-29T03:48:44;8.18;;;3.63;;
79027;SDS011;68427;48.476;19.102;2023-07-29T03:51:10;7.47;;;3.13;;
79027;SDS011;68427;48.476;19.102;2023-07-29T03:53:36;9.23;;;3.45;;
79027;SDS011;68427;48.476;19.102;2023-07-29T03:56:03;6.40;;;3.72;;
79027;SDS011;68427;48.476;19.102;2023-07-29T03:58:29;8.05;;;4.03;;
79027;SDS011;68427;48.476;19.102;2023-07-29T04:00:54;6.88;;;3.58;;
79027;SDS011;68427;48.476;19.102;2023-07-29T04:03:20;7.78;;;4.15;;
79027;SDS011;68427;48.476;19.102;2023-07-29T04:05:46;7.57;;;3.50;;
79027;SDS011;68427;48.476;19.102;2023-07-29T04:08:11;7.57;;;3.40;;
79027;SDS011;68427;48.476;19.102;2023-07-29T04:10:37;7.90;;;3.45;;
79027;SDS011;68427;48.476;19.102;2023-07-29T04:13:04;6.28;;;3.70;;
79027;SDS011;68427;48.476;19.102;2023-07-29T04:15:30;5.03;;;2.78;;
79027;SDS011;68427;48.476;19.102;2023-07-29T04:17:56;7.45;;;2.97;;
79027;SDS011;68427;48.476;19.102;2023-07-29T04:20:21;6.65;;;3.38;;
79027;SDS011;68427;48.476;19.102;2023-07-29T04:22:47;10.80;;;4.35;;
79027;SDS011;68427;48.476;19.102;2023-07-29T04:25:13;13.90;;;3.55;;
79027;SDS011;68427;48.476;19.102;2023-07-29T04:27:39;8.27;;;3.58;;
79027;SDS011;68427;48.476;19.102;2023-07-29T04:30:07;7.40;;;4.43;;
79027;SDS011;68427;48.476;19.102;2023-07-29T04:32:33;6.07;;;3.63;;
79027;SDS011;68427;48.476;19.102;2023-07-29T04:34:59;8.27;;;3.67;;
79027;SDS011;68427;48.476;19.102;2023-07-29T04:37:24;7.38;;;3.88;;
79027;SDS011;68427;48.476;19.102;2023-07-29T04:39:50;7.55;;;4.15;;
79027;SDS011;68427;48.476;19.102;2023-07-29T04:42:16;6.57;;;3.38;;
79027;SDS011;68427;48.476;19.102;2023-07-29T04:44:41;7.57;;;4.47;;
79027;SDS011;68427;48.476;19.102;2023-07-29T04:47:09;8.27;;;3.45;;
79027;SDS011;68427;48.476;19.102;2023-07-29T04:49:35;6.45;;;3.63;;
79027;SDS011;68427;48.476;19.102;2023-07-29T04:52:01;6.43;;;4.35;;
79027;SDS011;68427;48.476;19.102;2023-07-29T04:54:26;6.68;;;4.35;;
79027;SDS011;68427;48.476;19.102;2023-07-29T04:56:52;7.32;;;3.22;;
79027;SDS011;68427;48.476;19.102;2023-07-29T04:59:18;4.10;;;2.60;;
79027;SDS011;68427;48.476;19.102;2023-07-29T05:01:43;4.82;;;2.67;;
79027;SDS011;68427;48.476;19.102;2023-07-29T05:04:10;5.35;;;2.67;;
79027;SDS011;68427;48.476;19.102;2023-07-29T05:06:36;5.75;;;3.10;;
79027;SDS011;68427;48.476;19.102;2023-07-29T05:09:12;6.43;;;3.30;;
79027;SDS011;68427;48.476;19.102;2023-07-29T05:11:38;5.50;;;3.58;;
79027;SDS011;68427;48.476;19.102;2023-07-29T05:14:05;5.88;;;3.33;;
79027;SDS011;68427;48.476;19.102;2023-07-29T05:16:31;5.45;;;3.55;;
79027;SDS011;68427;48.476;19.102;2023-07-29T05:18:57;5.85;;;2.70;;
79027;SDS011;68427;48.476;19.102;2023-07-29T05:21:24;6.20;;;2.83;;
79027;SDS011;68427;48.476;19.102;2023-07-29T05:23:50;4.72;;;3.05;;
79027;SDS011;68427;48.476;19.102;2023-07-29T05:26:15;6.65;;;3.75;;
79027;SDS011;68427;48.476;19.102;2023-07-29T05:28:41;4.85;;;3.17;;
79027;SDS011;68427;48.476;19.102;2023-07-29T05:31:07;5.40;;;2.90;;
79027;SDS011;68427;48.476;19.102;2023-07-29T05:33:32;6.18;;;2.65;;
79027;SDS011;68427;48.476;19.102;2023-07-29T05:35:58;4.95;;;2.78;;
79027;SDS011;68427;48.476;19.102;2023-07-29T05:38:25;7.35;;;4.45;;
79027;SDS011;68427;48.476;19.102;2023-07-29T05:43:16;5.30;;;3.65;;
79027;SDS011;68427;48.476;19.102;2023-07-29T05:45:45;4.68;;;2.95;;
79027;SDS011;68427;48.476;19.102;2023-07-29T05:48:11;5.07;;;2.90;;
79027;SDS011;68427;48.476;19.102;2023-07-29T05:50:36;6.57;;;3.67;;
79027;SDS011;68427;48.476;19.102;2023-07-29T05:53:02;7.32;;;3.40;;
79027;SDS011;68427;48.476;19.102;2023-07-29T05:55:30;5.90;;;3.50;;
79027;SDS011;68427;48.476;19.102;2023-07-29T05:57:55;5.85;;;2.85;;
79027;SDS011;68427;48.476;19.102;2023-07-29T06:00:22;5.22;;;3.33;;
79027;SDS011;68427;48.476;19.102;2023-07-29T06:02:48;6.75;;;4.00;;
79027;SDS011;68427;48.476;19.102;2023-07-29T06:05:14;5.85;;;3.22;;
79027;SDS011;68427;48.476;19.102;2023-07-29T06:07:40;5.47;;;3.83;;
79027;SDS011;68427;48.476;19.102;2023-07-29T06:10:09;6.30;;;4.13;;
79027;SDS011;68427;48.476;19.102;2023-07-29T06:12:38;7.38;;;4.03;;
79027;SDS011;68427;48.476;19.102;2023-07-29T06:15:04;5.93;;;3.40;;
79027;SDS011;68427;48.476;19.102;2023-07-29T06:17:30;6.60;;;4.55;;
79027;SDS011;68427;48.476;19.102;2023-07-29T06:19:56;5.03;;;3.92;;
79027;SDS011;68427;48.476;19.102;2023-07-29T06:22:22;6.50;;;5.00;;
79027;SDS011;68427;48.476;19.102;2023-07-29T06:24:47;6.90;;;3.97;;
79027;SDS011;68427;48.476;19.102;2023-07-29T06:27:13;5.32;;;2.92;;
79027;SDS011;68427;48.476;19.102;2023-07-29T06:29:40;5.68;;;3.53;;
79027;SDS011;68427;48.476;19.102;2023-07-29T06:32:06;5.47;;;2.83;;
79027;SDS011;68427;48.476;19.102;2023-07-29T06:34:32;7.10;;;4.07;;
79027;SDS011;68427;48.476;19.102;2023-07-29T06:36:58;5.05;;;3.22;;
79027;SDS011;68427;48.476;19.102;2023-07-29T06:39:23;5.10;;;2.97;;
79027;SDS011;68427;48.476;19.102;2023-07-29T06:41:49;4.38;;;2.70;;
79027;SDS011;68427;48.476;19.102;2023-07-29T06:44:15;4.53;;;2.97;;
79027;SDS011;68427;48.476;19.102;2023-07-29T06:46:42;6.30;;;3.38;;
79027;SDS011;68427;48.476;19.102;2023-07-29T06:51:33;4.53;;;2.60;;
79027;SDS011;68427;48.476;19.102;2023-07-29T06:54:00;4.20;;;2.75;;
79027;SDS011;68427;48.476;19.102;2023-07-29T06:56:26;4.10;;;2.55;;
79027;SDS011;68427;48.476;19.102;2023-07-29T06:58:52;4.55;;;2.67;;
79027;SDS011;68427;48.476;19.102;2023-07-29T07:01:17;4.00;;;1.98;;
79027;SDS011;68427;48.476;19.102;2023-07-29T07:03:44;4.72;;;2.65;;
79027;SDS011;68427;48.476;19.102;2023-07-29T07:06:10;5.15;;;2.58;;
79027;SDS011;68427;48.476;19.102;2023-07-29T07:08:36;6.53;;;2.65;;
79027;SDS011;68427;48.476;19.102;2023-07-29T07:11:01;3.03;;;1.60;;
79027;SDS011;68427;48.476;19.102;2023-07-29T07:13:27;4.72;;;2.55;;
79027;SDS011;68427;48.476;19.102;2023-07-29T07:15:54;3.50;;;2.58;;
79027;SDS011;68427;48.476;19.102;2023-07-29T07:18:19;3.20;;;2.25;;
79027;SDS011;68427;48.476;19.102;2023-07-29T07:20:49;4.15;;;2.65;;
79027;SDS011;68427;48.476;19.102;2023-07-29T07:23:15;4.70;;;2.20;;
79027;SDS011;68427;48.476;19.102;2023-07-29T07:25:40;4.95;;;2.38;;
79027;SDS011;68427;48.476;19.102;2023-07-29T07:28:07;5.32;;;4.70;;
79027;SDS011;68427;48.476;19.102;2023-07-29T07:30:33;6.35;;;2.65;;
79027;SDS011;68427;48.476;19.102;2023-07-29T07:32:59;6.28;;;2.95;;
79027;SDS011;68427;48.476;19.102;2023-07-29T07:35:24;4.03;;;2.47;;
79027;SDS011;68427;48.476;19.102;2023-07-29T07:37:51;5.13;;;2.97;;
79027;SDS011;68427;48.476;19.102;2023-07-29T07:42:43;3.53;;;2.45;;
79027;SDS011;68427;48.476;19.102;2023-07-29T07:45:08;3.83;;;2.47;;
79027;SDS011;68427;48.476;19.102;2023-07-29T07:47:34;4.57;;;2.47;;
79027;SDS011;68427;48.476;19.102;2023-07-29T07:50:00;4.68;;;2.35;;
79027;SDS011;68427;48.476;19.102;2023-07-29T07:52:26;3.53;;;2.25;;
79027;SDS011;68427;48.476;19.102;2023-07-29T07:54:53;4.65;;;2.42;;
79027;SDS011;68427;48.476;19.102;2023-07-29T07:57:19;7.03;;;2.33;;
79027;SDS011;68427;48.476;19.102;2023-07-29T07:59:45;3.83;;;2.15;;
79027;SDS011;68427;48.476;19.102;2023-07-29T08:02:10;3.78;;;2.25;;
79027;SDS011;68427;48.476;19.102;2023-07-29T08:04:36;4.28;;;2.00;;
79027;SDS011;68427;48.476;19.102;2023-07-29T08:07:02;4.15;;;2.15;;
79027;SDS011;68427;48.476;19.102;2023-07-29T08:09:28;3.92;;;2.00;;
79027;SDS011;68427;48.476;19.102;2023-07-29T08:11:55;4.65;;;2.00;;
79027;SDS011;68427;48.476;19.102;2023-07-29T08:16:46;4.32;;;1.67;;
79027;SDS011;68427;48.476;19.102;2023-07-29T08:19:12;3.15;;;1.35;;
79027;SDS011;68427;48.476;19.102;2023-07-29T08:21:37;4.50;;;2.42;;
79027;SDS011;68427;48.476;19.102;2023-07-29T08:24:03;3.58;;;1.63;;
79027;SDS011;68427;48.476;19.102;2023-07-29T08:26:29;4.40;;;2.05;;
79027;SDS011;68427;48.476;19.102;2023-07-29T08:28:56;3.53;;;1.48;;
79027;SDS011;68427;48.476;19.102;2023-07-29T08:33:47;3.15;;;1.92;;
79027;SDS011;68427;48.476;19.102;2023-07-29T08:36:13;3.67;;;2.00;;
79027;SDS011;68427;48.476;19.102;2023-07-29T08:38:38;3.72;;;2.35;;
79027;SDS011;68427;48.476;19.102;2023-07-29T08:41:06;3.40;;;1.88;;
79027;SDS011;68427;48.476;19.102;2023-07-29T08:43:37;5.63;;;1.85;;
79027;SDS011;68427;48.476;19.102;2023-07-29T08:46:05;4.80;;;2.25;;
79027;SDS011;68427;48.476;19.102;2023-07-29T08:48:32;2.83;;;1.55;;
79027;SDS011;68427;48.476;19.102;2023-07-29T08:51:03;3.45;;;1.52;;
79027;SDS011;68427;48.476;19.102;2023-07-29T08:53:30;2.65;;;1.50;;
79027;SDS011;68427;48.476;19.102;2023-07-29T08:55:56;3.53;;;1.77;;
79027;SDS011;68427;48.476;19.102;2023-07-29T08:58:23;2.80;;;2.10;;
79027;SDS011;68427;48.476;19.102;2023-07-29T09:00:49;3.30;;;2.00;;
79027;SDS011;68427;48.476;19.102;2023-07-29T09:03:16;4.05;;;1.13;;
79027;SDS011;68427;48.476;19.102;2023-07-29T09:05:42;2.40;;;1.33;;
79027;SDS011;68427;48.476;19.102;2023-07-29T09:08:08;4.03;;;1.25;;
79027;SDS011;68427;48.476;19.102;2023-07-29T09:10:35;2.60;;;1.02;;
79027;SDS011;68427;48.476;19.102;2023-07-29T09:15:28;2.50;;;0.90;;
79027;SDS011;68427;48.476;19.102;2023-07-29T09:17:55;2.78;;;1.38;;
79027;SDS011;68427;48.476;19.102;2023-07-29T09:20:25;2.15;;;0.95;;
79027;SDS011;68427;48.476;19.102;2023-07-29T09:22:52;3.25;;;1.38;;
79027;SDS011;68427;48.476;19.102;2023-07-29T09:25:22;3.75;;;1.90;;
79027;SDS011;68427;48.476;19.102;2023-07-29T09:27:49;2.92;;;1.63;;
79027;SDS011;68427;48.476;19.102;2023-07-29T09:30:15;2.75;;;1.05;;
79027;SDS011;68427;48.476;19.102;2023-07-29T09:32:41;3.75;;;1.58;;
79027;SDS011;68427;48.476;19.102;2023-07-29T09:35:09;2.75;;;1.17;;
79027;SDS011;68427;48.476;19.102;2023-07-29T09:37:37;3.45;;;1.25;;
79027;SDS011;68427;48.476;19.102;2023-07-29T09:40:04;2.42;;;1.25;;
79027;SDS011;68427;48.476;19.102;2023-07-29T09:44:56;3.08;;;1.20;;
79027;SDS011;68427;48.476;19.102;2023-07-29T09:47:22;2.13;;;0.75;;
79027;SDS011;68427;48.476;19.102;2023-07-29T09:49:48;2.83;;;0.98;;
79027;SDS011;68427;48.476;19.102;2023-07-29T09:52:15;2.20;;;1.23;;
79027;SDS011;68427;48.476;19.102;2023-07-29T09:54:43;3.75;;;1.45;;
79027;SDS011;68427;48.476;19.102;2023-07-29T09:57:09;2.72;;;1.35;;
79027;SDS011;68427;48.476;19.102;2023-07-29T09:59:35;3.22;;;1.08;;
79027;SDS011;68427;48.476;19.102;2023-07-29T10:02:01;2.25;;;1.23;;
79027;SDS011;68427;48.476;19.102;2023-07-29T10:04:27;3.33;;;2.03;;
79027;SDS011;68427;48.476;19.102;2023-07-29T10:06:55;2.15;;;1.08;;
79027;SDS011;68427;48.476;19.102;2023-07-29T10:09:22;4.53;;;1.30;;
79027;SDS011;68427;48.476;19.102;2023-07-29T10:11:51;2.50;;;1.33;;
79027;SDS011;68427;48.476;19.102;2023-07-29T10:14:18;1.75;;;0.73;;
79027;SDS011;68427;48.476;19.102;2023-07-29T10:16:44;1.50;;;0.45;;
79027;SDS011;68427;48.476;19.102;2023-07-29T10:19:11;1.75;;;0.68;;
79027;SDS011;68427;48.476;19.102;2023-07-29T10:21:39;2.22;;;0.47;;
79027;SDS011;68427;48.476;19.102;2023-07-29T10:24:09;2.05;;;0.50;;
79027;SDS011;68427;48.476;19.102;2023-07-29T10:26:40;3.42;;;0.60;;
79027;SDS011;68427;48.476;19.102;2023-07-29T10:29:10;2.80;;;0.52;;
79027;SDS011;68427;48.476;19.102;2023-07-29T10:31:37;2.15;;;0.40;;
79027;SDS011;68427;48.476;19.102;2023-07-29T10:34:04;2.08;;;0.50;;
79027;SDS011;68427;48.476;19.102;2023-07-29T10:36:31;1.20;;;0.30;;
79027;SDS011;68427;48.476;19.102;2023-07-29T10:38:56;1.30;;;0.43;;
79027;SDS011;68427;48.476;19.102;2023-07-29T10:41:22;1.75;;;0.50;;
79027;SDS011;68427;48.476;19.102;2023-07-29T10:43:48;0.95;;;0.10;;
79027;SDS011;68427;48.476;19.102;2023-07-29T10:46:18;1.00;;;0.32;;
79027;SDS011;68427;48.476;19.102;2023-07-29T10:48:51;2.78;;;0.45;;
79027;SDS011;68427;48.476;19.102;2023-07-29T10:51:22;1.23;;;0.30;;
79027;SDS011;68427;48.476;19.102;2023-07-29T10:53:54;1.85;;;1.60;;
79027;SDS011;68427;48.476;19.102;2023-07-29T10:56:24;1.00;;;0.22;;
79027;SDS011;68427;48.476;19.102;2023-07-29T10:58:51;1.27;;;0.35;;
79027;SDS011;68427;48.476;19.102;2023-07-29T11:01:27;1.42;;;0.32;;
79027;SDS011;68427;48.476;19.102;2023-07-29T11:09:52;1.48;;;0.50;;
79027;SDS011;68427;48.476;19.102;2023-07-29T11:15:20;1.20;;;1.02;;
79027;SDS011;68427;48.476;19.102;2023-07-29T11:17:48;1.25;;;0.40;;
79027;SDS011;68427;48.476;19.102;2023-07-29T11:20:16;1.52;;;0.93;;
79027;SDS011;68427;48.476;19.102;2023-07-29T11:22:42;1.80;;;0.60;;
79027;SDS011;68427;48.476;19.102;2023-07-29T11:25:08;1.63;;;0.80;;
79027;SDS011;68427;48.476;19.102;2023-07-29T11:27:36;1.38;;;0.45;;
79027;SDS011;68427;48.476;19.102;2023-07-29T11:30:02;1.50;;;0.43;;
79027;SDS011;68427;48.476;19.102;2023-07-29T11:32:30;1.33;;;0.70;;
79027;SDS011;68427;48.476;19.102;2023-07-29T11:35:00;2.97;;;1.30;;
79027;SDS011;68427;48.476;19.102;2023-07-29T11:37:26;1.23;;;0.32;;
79027;SDS011;68427;48.476;19.102;2023-07-29T11:39:52;2.00;;;0.32;;
79027;SDS011;68427;48.476;19.102;2023-07-29T11:42:18;1.98;;;0.75;;
79027;SDS011;68427;48.476;19.102;2023-07-29T11:44:43;1.42;;;0.68;;
79027;SDS011;68427;48.476;19.102;2023-07-29T11:47:09;1.63;;;0.80;;
79027;SDS011;68427;48.476;19.102;2023-07-29T11:49:37;2.25;;;0.60;;
79027;SDS011;68427;48.476;19.102;2023-07-29T11:52:07;1.67;;;0.60;;
79027;SDS011;68427;48.476;19.102;2023-07-29T11:54:34;2.20;;;1.23;;
79027;SDS011;68427;48.476;19.102;2023-07-29T11:57:00;1.95;;;1.02;;
79027;SDS011;68427;48.476;19.102;2023-07-29T11:59:27;1.50;;;0.50;;
79027;SDS011;68427;48.476;19.102;2023-07-29T12:01:53;1.92;;;0.90;;
79027;SDS011;68427;48.476;19.102;2023-07-29T12:04:19;1.60;;;0.70;;
79027;SDS011;68427;48.476;19.102;2023-07-29T12:06:45;2.42;;;0.73;;
79027;SDS011;68427;48.476;19.102;2023-07-29T12:09:12;3.30;;;0.63;;
79027;SDS011;68427;48.476;19.102;2023-07-29T12:11:38;3.63;;;0.50;;
79027;SDS011;68427;48.476;19.102;2023-07-29T12:14:06;2.15;;;0.52;;
79027;SDS011;68427;48.476;19.102;2023-07-29T12:16:39;1.52;;;0.52;;
79027;SDS011;68427;48.476;19.102;2023-07-29T12:19:05;2.25;;;0.68;;
79027;SDS011;68427;48.476;19.102;2023-07-29T12:21:31;2.28;;;0.90;;
79027;SDS011;68427;48.476;19.102;2023-07-29T12:23:57;2.20;;;0.60;;
79027;SDS011;68427;48.476;19.102;2023-07-29T12:26:28;2.42;;;0.50;;
79027;SDS011;68427;48.476;19.102;2023-07-29T12:28:54;1.48;;;0.60;;
79027;SDS011;68427;48.476;19.102;2023-07-29T12:31:21;2.63;;;0.52;;
79027;SDS011;68427;48.476;19.102;2023-07-29T12:33:47;1.45;;;0.60;;
79027;SDS011;68427;48.476;19.102;2023-07-29T12:36:13;1.77;;;0.38;;
79027;SDS011;68427;48.476;19.102;2023-07-29T12:38:40;2.50;;;0.43;;
79027;SDS011;68427;48.476;19.102;2023-07-29T12:41:08;1.52;;;1.08;;
79027;SDS011;68427;48.476;19.102;2023-07-29T12:43:35;1.77;;;0.65;;
79027;SDS011;68427;48.476;19.102;2023-07-29T12:48:26;1.98;;;0.90;;
79027;SDS011;68427;48.476;19.102;2023-07-29T12:50:51;1.88;;;0.65;;
79027;SDS011;68427;48.476;19.102;2023-07-29T12:53:17;2.83;;;0.80;;
79027;SDS011;68427;48.476;19.102;2023-07-29T12:55:43;2.08;;;0.85;;
79027;SDS011;68427;48.476;19.102;2023-07-29T12:58:08;5.50;;;1.10;;
79027;SDS011;68427;48.476;19.102;2023-07-29T13:00:35;1.10;;;0.25;;
79027;SDS011;68427;48.476;19.102;2023-07-29T13:03:01;1.77;;;0.43;;
79027;SDS011;68427;48.476;19.102;2023-07-29T13:05:30;3.22;;;0.45;;
79027;SDS011;68427;48.476;19.102;2023-07-29T13:07:56;1.08;;;0.15;;
79027;SDS011;68427;48.476;19.102;2023-07-29T13:10:22;0.95;;;0.28;;
79027;SDS011;68427;48.476;19.102;2023-07-29T13:12:47;1.13;;;0.22;;
79027;SDS011;68427;48.476;19.102;2023-07-29T13:15:14;0.90;;;0.13;;
79027;SDS011;68427;48.476;19.102;2023-07-29T13:17:41;0.88;;;0.20;;
79027;SDS011;68427;48.476;19.102;2023-07-29T13:20:07;1.33;;;0.20;;
79027;SDS011;68427;48.476;19.102;2023-07-29T13:22:33;1.38;;;0.20;;
79027;SDS011;68427;48.476;19.102;2023-07-29T13:24:59;2.25;;;0.32;;
79027;SDS011;68427;48.476;19.102;2023-07-29T13:27:25;2.28;;;0.28;;
79027;SDS011;68427;48.476;19.102;2023-07-29T13:29:51;1.02;;;0.28;;
79027;SDS011;68427;48.476;19.102;2023-07-29T13:32:17;1.38;;;0.22;;
79027;SDS011;68427;48.476;19.102;2023-07-29T13:34:44;0.90;;;0.40;;
79027;SDS011;68427;48.476;19.102;2023-07-29T13:37:10;0.93;;;0.20;;
79027;SDS011;68427;48.476;19.102;2023-07-29T13:39:35;1.08;;;0.55;;
79027;SDS011;68427;48.476;19.102;2023-07-29T13:42:01;1.33;;;0.13;;
79027;SDS011;68427;48.476;19.102;2023-07-29T13:44:27;2.22;;;0.60;;
79027;SDS011;68427;48.476;19.102;2023-07-29T13:46:52;1.98;;;0.20;;
79027;SDS011;68427;48.476;19.102;2023-07-29T13:49:18;1.75;;;0.32;;
79027;SDS011;68427;48.476;19.102;2023-07-29T13:51:45;1.00;;;0.43;;
79027;SDS011;68427;48.476;19.102;2023-07-29T13:54:11;1.30;;;0.28;;
79027;SDS011;68427;48.476;19.102;2023-07-29T13:56:36;0.75;;;0.15;;
79027;SDS011;68427;48.476;19.102;2023-07-29T13:59:02;0.82;;;0.30;;
79027;SDS011;68427;48.476;19.102;2023-07-29T14:01:28;1.30;;;0.40;;
79027;SDS011;68427;48.476;19.102;2023-07-29T14:03:54;1.10;;;0.43;;
79027;SDS011;68427;48.476;19.102;2023-07-29T14:06:20;2.33;;;0.52;;
79027;SDS011;68427;48.476;19.102;2023-07-29T14:08:47;1.35;;;0.32;;
79027;SDS011;68427;48.476;19.102;2023-07-29T14:11:12;2.28;;;0.55;;
79027;SDS011;68427;48.476;19.102;2023-07-29T14:13:38;1.20;;;0.20;;
79027;SDS011;68427;48.476;19.102;2023-07-29T14:16:04;1.13;;;0.20;;
79027;SDS011;68427;48.476;19.102;2023-07-29T14:18:30;0.60;;;0.20;;
79027;SDS011;68427;48.476;19.102;2023-07-29T14:20:55;1.30;;;0.43;;
79027;SDS011;68427;48.476;19.102;2023-07-29T14:23:21;0.43;;;0.20;;
79027;SDS011;68427;48.476;19.102;2023-07-29T14:25:48;2.28;;;0.32;;
79027;SDS011;68427;48.476;19.102;2023-07-29T14:28:14;1.10;;;0.15;;
79027;SDS011;68427;48.476;19.102;2023-07-29T14:30:39;1.15;;;0.43;;
79027;SDS011;68427;48.476;19.102;2023-07-29T14:33:06;1.45;;;0.40;;
79027;SDS011;68427;48.476;19.102;2023-07-29T14:35:32;1.13;;;0.30;;
79027;SDS011;68427;48.476;19.102;2023-07-29T14:37:57;0.88;;;0.40;;
79027;SDS011;68427;48.476;19.102;2023-07-29T14:40:23;0.68;;;0.20;;
79027;SDS011;68427;48.476;19.102;2023-07-29T14:42:50;0.70;;;0.30;;
79027;SDS011;68427;48.476;19.102;2023-07-29T14:45:16;1.17;;;0.10;;
79027;SDS011;68427;48.476;19.102;2023-07-29T14:47:42;0.60;;;0.38;;
79027;SDS011;68427;48.476;19.102;2023-07-29T14:50:08;1.20;;;0.17;;
79027;SDS011;68427;48.476;19.102;2023-07-29T14:52:33;1.10;;;0.40;;
79027;SDS011;68427;48.476;19.102;2023-07-29T14:54:59;0.60;;;0.10;;
79027;SDS011;68427;48.476;19.102;2023-07-29T14:57:25;1.33;;;0.10;;